sensor_id;sensor_type;location;lat;lon;timestamp;pressure;altitude;pressure_sealevel;temperature;humidity
42725;BME280;28369;44.046;23.014;2023-05-08T00:02:06;101084.53;;;23.85;42.42
42725;BME280;28369;44.046;23.014;2023-05-08T00:04:32;101210.16;;;24.09;43.34
42725;BME280;28369;44.046;23.014;2023-05-08T00:06:57;101027.69;;;23.27;42.79
42725;BME280;28369;44.046;23.014;2023-05-08T00:09:22;101108.31;;;24.08;42.32
42725;BME280;28369;44.046;23.014;2023-05-08T00:11:48;101070.50;;;23.83;42.63
42725;BME280;28369;44.046;23.014;2023-05-08T00:14:13;101151.69;;;24.25;42.72
42725;BME280;28369;44.046;23.014;2023-05-08T00:16:39;101186.81;;;24.50;42.18
42725;BME280;28369;44.046;23.014;2023-05-08T00:19:05;101095.72;;;24.15;42.23
42725;BME280;28369;44.046;23.014;2023-05-08T00:21:31;101197.34;;;24.78;42.22
42725;BME280;28369;44.046;23.014;2023-05-08T00:23:56;101037.66;;;23.80;42.36
42725;BME280;28369;44.046;23.014;2023-05-08T00:26:22;100950.88;;;22.93;42.60
42725;BME280;28369;44.046;23.014;2023-05-08T00:28:47;101142.81;;;24.11;42.83
42725;BME280;28369;44.046;23.014;2023-05-08T00:31:13;101008.53;;;23.24;42.97
42725;BME280;28369;44.046;23.014;2023-05-08T00:33:39;101055.59;;;23.46;42.81
42725;BME280;28369;44.046;23.014;2023-05-08T00:36:05;100993.06;;;23.19;42.56
42725;BME280;28369;44.046;23.014;2023-05-08T00:38:32;100949.22;;;22.92;42.23
42725;BME280;28369;44.046;23.014;2023-05-08T00:40:58;101201.06;;;24.30;42.62
42725;BME280;28369;44.046;23.014;2023-05-08T00:43:23;101195.28;;;24.13;42.92
42725;BME280;28369;44.046;23.014;2023-05-08T00:45:53;100976.25;;;22.42;43.71
42725;BME280;28369;44.046;23.014;2023-05-08T00:48:20;100956.38;;;22.65;42.90
42725;BME280;28369;44.046;23.014;2023-05-08T00:50:47;101122.69;;;23.46;42.61
42725;BME280;28369;44.046;23.014;2023-05-08T00:53:13;101167.03;;;23.42;43.17
42725;BME280;28369;44.046;23.014;2023-05-08T00:55:39;101114.28;;;22.73;43.46
42725;BME280;28369;44.046;23.014;2023-05-08T00:58:05;100990.53;;;21.86;43.39
42725;BME280;28369;44.046;23.014;2023-05-08T01:00:31;100764.81;;;20.30;43.77
42725;BME280;28369;44.046;23.014;2023-05-08T01:02:59;100991.59;;;21.63;43.92
42725;BME280;28369;44.046;23.014;2023-05-08T01:05:26;101035.94;;;22.01;43.99
42725;BME280;28369;44.046;23.014;2023-05-08T01:07:52;101023.75;;;21.70;44.51
42725;BME280;28369;44.046;23.014;2023-05-08T01:10:17;101140.44;;;22.36;44.84
42725;BME280;28369;44.046;23.014;2023-05-08T01:13:03;101238.97;;;22.69;45.20
42725;BME280;28369;44.046;23.014;2023-05-08T01:15:40;101218.84;;;22.51;45.54
42725;BME280;28369;44.046;23.014;2023-05-08T01:18:20;101160.97;;;21.85;45.57
42725;BME280;28369;44.046;23.014;2023-05-08T01:23:38;101240.47;;;22.28;46.21
42725;BME280;28369;44.046;23.014;2023-05-08T01:27:04;101194.81;;;21.93;46.53
42725;BME280;28369;44.046;23.014;2023-05-08T01:32:24;101180.63;;;21.92;46.86
42725;BME280;28369;44.046;23.014;2023-05-08T01:37:49;101204.44;;;22.31;46.25
42725;BME280;28369;44.046;23.014;2023-05-08T01:40:27;101151.25;;;21.99;46.38
42725;BME280;28369;44.046;23.014;2023-05-08T01:45:50;101220.00;;;22.42;45.94
42725;BME280;28369;44.046;23.014;2023-05-08T01:48:44;101226.75;;;22.59;45.59
42725;BME280;28369;44.046;23.014;2023-05-08T01:51:17;101180.72;;;22.27;45.51
42725;BME280;28369;44.046;23.014;2023-05-08T01:53:50;101180.69;;;22.21;45.61
42725;BME280;28369;44.046;23.014;2023-05-08T01:56:20;101194.84;;;22.36;45.60
42725;BME280;28369;44.046;23.014;2023-05-08T01:58:49;101241.56;;;22.55;45.64
42725;BME280;28369;44.046;23.014;2023-05-08T02:01:17;101239.78;;;22.41;45.65
42725;BME280;28369;44.046;23.014;2023-05-08T02:03:45;100940.59;;;20.78;45.23
42725;BME280;28369;44.046;23.014;2023-05-08T02:06:13;101020.56;;;21.38;45.26
42725;BME280;28369;44.046;23.014;2023-05-08T02:08:42;101017.25;;;21.36;45.32
42725;BME280;28369;44.046;23.014;2023-05-08T02:11:09;101159.06;;;22.22;45.20
42725;BME280;28369;44.046;23.014;2023-05-08T02:13:38;101229.31;;;23.03;44.33
42725;BME280;28369;44.046;23.014;2023-05-08T02:16:06;100977.63;;;21.46;44.34
42725;BME280;28369;44.046;23.014;2023-05-08T02:18:33;101144.03;;;22.50;44.66
42725;BME280;28369;44.046;23.014;2023-05-08T02:21:01;101021.22;;;21.62;44.17
42725;BME280;28369;44.046;23.014;2023-05-08T02:23:28;101228.44;;;22.95;44.26
42725;BME280;28369;44.046;23.014;2023-05-08T02:25:55;100934.25;;;21.22;43.96
42725;BME280;28369;44.046;23.014;2023-05-08T02:28:22;101206.56;;;22.92;43.87
42725;BME280;28369;44.046;23.014;2023-05-08T02:30:50;100979.31;;;21.26;44.70
42725;BME280;28369;44.046;23.014;2023-05-08T02:33:17;100942.50;;;21.06;44.60
42725;BME280;28369;44.046;23.014;2023-05-08T02:35:43;101198.31;;;22.58;44.66
42725;BME280;28369;44.046;23.014;2023-05-08T02:38:11;101199.72;;;22.54;44.76
42725;BME280;28369;44.046;23.014;2023-05-08T02:40:41;101204.41;;;22.74;44.16
42725;BME280;28369;44.046;23.014;2023-05-08T02:43:09;100997.81;;;21.99;43.91
42725;BME280;28369;44.046;23.014;2023-05-08T02:45:42;100975.88;;;21.53;43.94
42725;BME280;28369;44.046;23.014;2023-05-08T02:48:25;100919.44;;;21.48;43.53
42725;BME280;28369;44.046;23.014;2023-05-08T02:51:01;101221.91;;;23.40;44.06
42725;BME280;28369;44.046;23.014;2023-05-08T02:53:36;101077.88;;;22.50;43.94
42725;BME280;28369;44.046;23.014;2023-05-08T02:56:19;101143.81;;;23.15;43.47
42725;BME280;28369;44.046;23.014;2023-05-08T02:58:56;101150.41;;;23.19;43.37
42725;BME280;28369;44.046;23.014;2023-05-08T03:01:34;101112.69;;;22.78;43.49
42725;BME280;28369;44.046;23.014;2023-05-08T03:04:08;101152.03;;;23.13;43.54
42725;BME280;28369;44.046;23.014;2023-05-08T03:06:41;101098.91;;;22.88;43.79
42725;BME280;28369;44.046;23.014;2023-05-08T03:09:15;101224.00;;;23.51;43.70
42725;BME280;28369;44.046;23.014;2023-05-08T03:11:44;101147.03;;;23.03;43.79
42725;BME280;28369;44.046;23.014;2023-05-08T03:14:14;101209.91;;;23.36;43.68
42725;BME280;28369;44.046;23.014;2023-05-08T03:16:45;101211.03;;;23.13;43.75
42725;BME280;28369;44.046;23.014;2023-05-08T03:19:19;101166.72;;;22.82;43.35
42725;BME280;28369;44.046;23.014;2023-05-08T03:21:47;101236.09;;;22.99;43.53
42725;BME280;28369;44.046;23.014;2023-05-08T03:24:14;101200.91;;;22.80;43.37
42725;BME280;28369;44.046;23.014;2023-05-08T03:26:42;100988.47;;;21.38;43.85
42725;BME280;28369;44.046;23.014;2023-05-08T03:29:08;101196.34;;;22.74;43.48
42725;BME280;28369;44.046;23.014;2023-05-08T03:31:35;101117.19;;;22.36;43.51
42725;BME280;28369;44.046;23.014;2023-05-08T03:34:01;100967.84;;;21.32;43.62
42725;BME280;28369;44.046;23.014;2023-05-08T03:36:27;101013.94;;;21.77;43.60
42725;BME280;28369;44.046;23.014;2023-05-08T03:38:53;100969.78;;;21.66;43.34
42725;BME280;28369;44.046;23.014;2023-05-08T03:41:19;100993.19;;;21.79;43.08
42725;BME280;28369;44.046;23.014;2023-05-08T03:43:44;101209.72;;;23.02;43.59
42725;BME280;28369;44.046;23.014;2023-05-08T03:46:10;101061.06;;;22.00;43.99
42725;BME280;28369;44.046;23.014;2023-05-08T03:48:37;100933.41;;;21.00;44.34
42725;BME280;28369;44.046;23.014;2023-05-08T03:51:03;101050.22;;;21.43;44.99
42725;BME280;28369;44.046;23.014;2023-05-08T03:53:30;101155.53;;;22.22;44.45
42725;BME280;28369;44.046;23.014;2023-05-08T03:55:59;100953.47;;;20.89;44.66
42725;BME280;28369;44.046;23.014;2023-05-08T04:01:36;101261.09;;;23.06;44.47
42725;BME280;28369;44.046;23.014;2023-05-08T04:04:32;101263.88;;;22.63;44.49
42725;BME280;28369;44.046;23.014;2023-05-08T04:09:44;100988.59;;;21.08;44.57
42725;BME280;28369;44.046;23.014;2023-05-08T04:12:20;101190.41;;;22.50;44.41
42725;BME280;28369;44.046;23.014;2023-05-08T04:14:52;101253.03;;;23.06;43.90
42725;BME280;28369;44.046;23.014;2023-05-08T04:17:40;101128.75;;;22.43;43.57
42725;BME280;28369;44.046;23.014;2023-05-08T04:20:08;101175.44;;;22.91;43.03
42725;BME280;28369;44.046;23.014;2023-05-08T04:22:38;101224.72;;;23.25;43.31
42725;BME280;28369;44.046;23.014;2023-05-08T04:25:05;101195.41;;;23.17;43.59
42725;BME280;28369;44.046;23.014;2023-05-08T04:27:33;101154.03;;;23.04;43.35
42725;BME280;28369;44.046;23.014;2023-05-08T04:29:59;101229.88;;;23.75;42.79
42725;BME280;28369;44.046;23.014;2023-05-08T04:32:26;101213.03;;;24.01;42.43
42725;BME280;28369;44.046;23.014;2023-05-08T04:34:53;101147.34;;;23.90;41.71
42725;BME280;28369;44.046;23.014;2023-05-08T04:37:27;101259.13;;;24.11;42.36
42725;BME280;28369;44.046;23.014;2023-05-08T04:39:54;101207.81;;;23.79;42.58
42725;BME280;28369;44.046;23.014;2023-05-08T04:42:19;101248.41;;;24.92;41.51
42725;BME280;28369;44.046;23.014;2023-05-08T04:44:45;101257.28;;;24.52;42.02
42725;BME280;28369;44.046;23.014;2023-05-08T04:47:12;101294.50;;;25.09;41.93
42725;BME280;28369;44.046;23.014;2023-05-08T04:49:37;101289.31;;;24.40;42.69
42725;BME280;28369;44.046;23.014;2023-05-08T04:52:03;101253.31;;;25.22;41.78
42725;BME280;28369;44.046;23.014;2023-05-08T04:54:29;101285.34;;;25.43;41.55
42725;BME280;28369;44.046;23.014;2023-05-08T04:56:54;101072.47;;;24.67;40.63
42725;BME280;28369;44.046;23.014;2023-05-08T04:59:19;101237.13;;;25.87;39.79
42725;BME280;28369;44.046;23.014;2023-05-08T05:01:48;101285.94;;;26.36;39.79
42725;BME280;28369;44.046;23.014;2023-05-08T05:04:13;101110.56;;;25.16;39.32
42725;BME280;28369;44.046;23.014;2023-05-08T05:06:39;101127.41;;;25.44;39.50
42725;BME280;28369;44.046;23.014;2023-05-08T05:09:05;101097.22;;;24.83;40.39
42725;BME280;28369;44.046;23.014;2023-05-08T05:11:30;101029.84;;;24.78;40.08
42725;BME280;28369;44.046;23.014;2023-05-08T05:13:56;101145.88;;;25.33;40.05
42725;BME280;28369;44.046;23.014;2023-05-08T05:16:21;101287.97;;;26.41;39.67
42725;BME280;28369;44.046;23.014;2023-05-08T05:18:47;101296.50;;;26.37;39.57
42725;BME280;28369;44.046;23.014;2023-05-08T05:21:12;101303.88;;;26.49;39.06
42725;BME280;28369;44.046;23.014;2023-05-08T05:23:38;101100.59;;;24.52;40.69
42725;BME280;28369;44.046;23.014;2023-05-08T05:26:03;101242.56;;;25.15;41.41
42725;BME280;28369;44.046;23.014;2023-05-08T05:28:29;101021.91;;;23.30;42.00
42725;BME280;28369;44.046;23.014;2023-05-08T05:30:55;101291.56;;;24.10;44.56
42725;BME280;28369;44.046;23.014;2023-05-08T05:33:20;101106.03;;;23.09;44.85
42725;BME280;28369;44.046;23.014;2023-05-08T05:35:46;101268.66;;;24.21;45.29
42725;BME280;28369;44.046;23.014;2023-05-08T05:38:11;101210.97;;;23.96;44.56
42725;BME280;28369;44.046;23.014;2023-05-08T05:40:37;101330.75;;;24.99;44.50
42725;BME280;28369;44.046;23.014;2023-05-08T05:43:02;101120.00;;;23.53;44.23
42725;BME280;28369;44.046;23.014;2023-05-08T05:45:28;101310.44;;;25.10;44.73
42725;BME280;28369;44.046;23.014;2023-05-08T05:47:53;101244.69;;;24.32;44.63
42725;BME280;28369;44.046;23.014;2023-05-08T05:50:19;101069.38;;;22.75;45.85
42725;BME280;28369;44.046;23.014;2023-05-08T05:52:45;101009.53;;;22.68;44.89
42725;BME280;28369;44.046;23.014;2023-05-08T05:55:11;101163.03;;;24.40;44.05
42725;BME280;28369;44.046;23.014;2023-05-08T05:57:37;101181.63;;;24.42;42.73
42725;BME280;28369;44.046;23.014;2023-05-08T06:00:03;101334.41;;;24.52;45.31
42725;BME280;28369;44.046;23.014;2023-05-08T06:02:30;101192.56;;;23.87;45.60
42725;BME280;28369;44.046;23.014;2023-05-08T06:04:58;101336.81;;;26.26;43.55
42725;BME280;28369;44.046;23.014;2023-05-08T06:07:24;101177.75;;;25.75;41.84
42725;BME280;28369;44.046;23.014;2023-05-08T06:09:49;101281.50;;;26.99;41.41
42725;BME280;28369;44.046;23.014;2023-05-08T06:12:15;101298.31;;;27.01;41.42
42725;BME280;28369;44.046;23.014;2023-05-08T06:14:42;101248.53;;;26.21;41.46
42725;BME280;28369;44.046;23.014;2023-05-08T06:17:08;101221.03;;;26.63;41.01
42725;BME280;28369;44.046;23.014;2023-05-08T06:19:33;101321.59;;;25.99;42.50
42725;BME280;28369;44.046;23.014;2023-05-08T06:21:59;101362.56;;;27.29;39.80
42725;BME280;28369;44.046;23.014;2023-05-08T06:24:24;101360.53;;;27.68;39.20
42725;BME280;28369;44.046;23.014;2023-05-08T06:26:50;101355.22;;;28.10;38.02
42725;BME280;28369;44.046;23.014;2023-05-08T06:29:15;101262.91;;;27.95;37.89
42725;BME280;28369;44.046;23.014;2023-05-08T06:31:41;101268.63;;;28.05;37.65
42725;BME280;28369;44.046;23.014;2023-05-08T06:34:06;101209.34;;;27.92;37.12
42725;BME280;28369;44.046;23.014;2023-05-08T06:36:32;101324.03;;;28.81;36.75
42725;BME280;28369;44.046;23.014;2023-05-08T06:38:57;101144.47;;;27.68;37.25
42725;BME280;28369;44.046;23.014;2023-05-08T06:41:23;101284.97;;;28.76;37.11
42725;BME280;28369;44.046;23.014;2023-05-08T06:43:48;101326.41;;;29.12;36.40
42725;BME280;28369;44.046;23.014;2023-05-08T06:46:14;101351.22;;;29.45;36.67
42725;BME280;28369;44.046;23.014;2023-05-08T06:48:40;101339.25;;;29.05;36.80
42725;BME280;28369;44.046;23.014;2023-05-08T06:51:05;101317.22;;;28.66;35.84
42725;BME280;28369;44.046;23.014;2023-05-08T06:53:31;101253.97;;;28.25;35.93
42725;BME280;28369;44.046;23.014;2023-05-08T06:55:56;101347.66;;;28.73;35.94
42725;BME280;28369;44.046;23.014;2023-05-08T06:58:24;101399.13;;;28.97;36.62
42725;BME280;28369;44.046;23.014;2023-05-08T07:00:50;101287.19;;;28.56;35.87
42725;BME280;28369;44.046;23.014;2023-05-08T07:03:15;101313.81;;;28.83;35.56
42725;BME280;28369;44.046;23.014;2023-05-08T07:05:41;101338.84;;;28.66;36.50
42725;BME280;28369;44.046;23.014;2023-05-08T07:08:06;101383.50;;;29.11;36.89
42725;BME280;28369;44.046;23.014;2023-05-08T07:10:33;101387.59;;;29.02;35.63
42725;BME280;28369;44.046;23.014;2023-05-08T07:12:58;101194.28;;;27.72;36.55
42725;BME280;28369;44.046;23.014;2023-05-08T07:15:24;101367.78;;;28.77;36.86
42725;BME280;28369;44.046;23.014;2023-05-08T07:17:49;101344.03;;;29.03;36.52
42725;BME280;28369;44.046;23.014;2023-05-08T07:20:15;101397.84;;;29.23;35.59
42725;BME280;28369;44.046;23.014;2023-05-08T07:22:41;101366.28;;;29.17;36.03
42725;BME280;28369;44.046;23.014;2023-05-08T07:25:07;101373.59;;;28.93;36.08
42725;BME280;28369;44.046;23.014;2023-05-08T07:27:32;101400.22;;;29.32;35.49
42725;BME280;28369;44.046;23.014;2023-05-08T07:29:58;101371.72;;;29.29;35.73
42725;BME280;28369;44.046;23.014;2023-05-08T07:32:28;101186.53;;;28.18;35.39
42725;BME280;28369;44.046;23.014;2023-05-08T07:34:54;101120.75;;;27.10;35.91
42725;BME280;28369;44.046;23.014;2023-05-08T07:37:21;101269.53;;;28.30;34.82
42725;BME280;28369;44.046;23.014;2023-05-08T07:39:46;101293.72;;;28.78;34.83
42725;BME280;28369;44.046;23.014;2023-05-08T07:42:12;101347.56;;;29.39;34.82
42725;BME280;28369;44.046;23.014;2023-05-08T07:44:38;101265.81;;;28.66;34.87
42725;BME280;28369;44.046;23.014;2023-05-08T07:47:03;101427.84;;;29.69;33.87
42725;BME280;28369;44.046;23.014;2023-05-08T07:49:29;101432.94;;;29.42;34.24
42725;BME280;28369;44.046;23.014;2023-05-08T07:51:54;101351.69;;;29.06;34.40
42725;BME280;28369;44.046;23.014;2023-05-08T07:54:20;101195.91;;;28.04;35.18
42725;BME280;28369;44.046;23.014;2023-05-08T07:56:45;101348.41;;;29.04;35.00
42725;BME280;28369;44.046;23.014;2023-05-08T07:59:11;101427.47;;;28.94;34.71
42725;BME280;28369;44.046;23.014;2023-05-08T08:01:36;101364.88;;;28.49;35.97
42725;BME280;28369;44.046;23.014;2023-05-08T08:04:02;101436.19;;;29.08;35.42
42725;BME280;28369;44.046;23.014;2023-05-08T08:06:28;101317.81;;;28.80;35.57
42725;BME280;28369;44.046;23.014;2023-05-08T08:08:53;101379.19;;;29.86;34.62
42725;BME280;28369;44.046;23.014;2023-05-08T08:11:18;101381.53;;;29.82;35.22
42725;BME280;28369;44.046;23.014;2023-05-08T08:13:44;101387.72;;;29.30;35.42
42725;BME280;28369;44.046;23.014;2023-05-08T08:16:09;101237.94;;;28.54;35.14
42725;BME280;28369;44.046;23.014;2023-05-08T08:18:35;101185.69;;;28.06;35.12
42725;BME280;28369;44.046;23.014;2023-05-08T08:21:04;101307.69;;;29.35;34.99
42725;BME280;28369;44.046;23.014;2023-05-08T08:23:30;101289.94;;;28.79;33.75
42725;BME280;28369;44.046;23.014;2023-05-08T08:25:56;101297.47;;;29.01;33.32
42725;BME280;28369;44.046;23.014;2023-05-08T08:28:21;101365.75;;;29.27;33.35
42725;BME280;28369;44.046;23.014;2023-05-08T08:30:47;101388.81;;;29.41;34.62
42725;BME280;28369;44.046;23.014;2023-05-08T08:33:12;101374.22;;;30.24;32.90
42725;BME280;28369;44.046;23.014;2023-05-08T08:35:38;101424.69;;;30.54;33.90
42725;BME280;28369;44.046;23.014;2023-05-08T08:38:03;101410.94;;;30.43;33.93
42725;BME280;28369;44.046;23.014;2023-05-08T08:40:29;101100.63;;;28.32;34.78
42725;BME280;28369;44.046;23.014;2023-05-08T08:42:54;101382.25;;;30.19;34.58
42725;BME280;28369;44.046;23.014;2023-05-08T08:45:20;101424.09;;;31.14;33.83
42725;BME280;28369;44.046;23.014;2023-05-08T08:47:47;101395.69;;;30.54;33.34
42725;BME280;28369;44.046;23.014;2023-05-08T08:50:13;101399.47;;;30.53;33.43
42725;BME280;28369;44.046;23.014;2023-05-08T08:53:05;101424.25;;;30.45;34.11
42725;BME280;28369;44.046;23.014;2023-05-08T08:55:32;101438.84;;;30.56;34.12
42725;BME280;28369;44.046;23.014;2023-05-08T08:58:26;101352.47;;;29.66;34.49
42725;BME280;28369;44.046;23.014;2023-05-08T09:00:56;101277.81;;;29.06;34.38
42725;BME280;28369;44.046;23.014;2023-05-08T09:03:23;101422.75;;;30.08;34.02
42725;BME280;28369;44.046;23.014;2023-05-08T09:05:48;101376.25;;;30.16;32.64
42725;BME280;28369;44.046;23.014;2023-05-08T09:08:17;101422.22;;;30.52;33.06
42725;BME280;28369;44.046;23.014;2023-05-08T09:10:42;101356.94;;;30.13;32.92
42725;BME280;28369;44.046;23.014;2023-05-08T09:13:08;101411.72;;;30.27;32.85
42725;BME280;28369;44.046;23.014;2023-05-08T09:15:33;101439.28;;;30.24;33.83
42725;BME280;28369;44.046;23.014;2023-05-08T09:18:02;101418.50;;;30.01;33.19
42725;BME280;28369;44.046;23.014;2023-05-08T09:20:28;101368.03;;;30.11;33.05
42725;BME280;28369;44.046;23.014;2023-05-08T09:22:56;101407.88;;;30.68;33.16
42725;BME280;28369;44.046;23.014;2023-05-08T09:25:23;101319.28;;;29.59;33.78
42725;BME280;28369;44.046;23.014;2023-05-08T09:27:49;101427.59;;;30.81;32.89
42725;BME280;28369;44.046;23.014;2023-05-08T09:30:15;101368.75;;;30.36;33.03
42725;BME280;28369;44.046;23.014;2023-05-08T09:32:42;101267.94;;;29.64;34.03
42725;BME280;28369;44.046;23.014;2023-05-08T09:35:09;101371.03;;;30.56;34.12
42725;BME280;28369;44.046;23.014;2023-05-08T09:37:40;101259.88;;;29.81;33.70
42725;BME280;28369;44.046;23.014;2023-05-08T09:40:20;101408.41;;;30.54;32.98
42725;BME280;28369;44.046;23.014;2023-05-08T09:42:47;101388.63;;;29.72;34.37
42725;BME280;28369;44.046;23.014;2023-05-08T09:45:29;101423.50;;;30.21;32.94
42725;BME280;28369;44.046;23.014;2023-05-08T09:47:59;101391.94;;;29.74;33.50
42725;BME280;28369;44.046;23.014;2023-05-08T09:50:25;101387.44;;;29.68;33.50
42725;BME280;28369;44.046;23.014;2023-05-08T09:52:51;101415.03;;;29.29;34.92
42725;BME280;28369;44.046;23.014;2023-05-08T09:55:17;101430.63;;;29.98;34.40
42725;BME280;28369;44.046;23.014;2023-05-08T09:57:57;101398.88;;;28.87;34.84
42725;BME280;28369;44.046;23.014;2023-05-08T10:00:27;101443.06;;;28.20;36.96
42725;BME280;28369;44.046;23.014;2023-05-08T10:02:58;101446.56;;;29.11;35.69
42725;BME280;28369;44.046;23.014;2023-05-08T10:05:32;101421.94;;;29.01;35.94
42725;BME280;28369;44.046;23.014;2023-05-08T10:08:36;101414.97;;;28.82;36.32
42725;BME280;28369;44.046;23.014;2023-05-08T10:11:15;101269.38;;;27.94;36.57
42725;BME280;28369;44.046;23.014;2023-05-08T10:13:43;101427.06;;;28.67;37.08
42725;BME280;28369;44.046;23.014;2023-05-08T10:16:16;101458.97;;;28.77;37.16
42725;BME280;28369;44.046;23.014;2023-05-08T10:18:47;101452.16;;;28.86;37.19
42725;BME280;28369;44.046;23.014;2023-05-08T10:21:14;101397.97;;;28.32;38.78
42725;BME280;28369;44.046;23.014;2023-05-08T10:23:41;101416.00;;;28.38;38.53
42725;BME280;28369;44.046;23.014;2023-05-08T10:26:18;101412.56;;;27.94;38.87
42725;BME280;28369;44.046;23.014;2023-05-08T10:28:56;101458.31;;;28.14;40.03
42725;BME280;28369;44.046;23.014;2023-05-08T10:31:24;101161.25;;;26.22;41.05
42725;BME280;28369;44.046;23.014;2023-05-08T10:33:55;101289.63;;;26.42;42.17
42725;BME280;28369;44.046;23.014;2023-05-08T10:36:23;101450.59;;;27.30;42.20
42725;BME280;28369;44.046;23.014;2023-05-08T10:38:49;101326.25;;;26.24;42.66
42725;BME280;28369;44.046;23.014;2023-05-08T10:41:15;101452.16;;;26.87;43.73
42725;BME280;28369;44.046;23.014;2023-05-08T10:43:41;101273.91;;;26.07;43.65
42725;BME280;28369;44.046;23.014;2023-05-08T10:46:20;101463.38;;;27.41;44.21
42725;BME280;28369;44.046;23.014;2023-05-08T10:48:59;101425.88;;;27.08;44.69
42725;BME280;28369;44.046;23.014;2023-05-08T10:51:41;101435.38;;;27.11;43.12
42725;BME280;28369;44.046;23.014;2023-05-08T10:54:17;101445.00;;;27.25;43.17
42725;BME280;28369;44.046;23.014;2023-05-08T10:56:43;101405.06;;;26.83;43.89
42725;BME280;28369;44.046;23.014;2023-05-08T10:59:17;101427.66;;;26.89;43.12
42725;BME280;28369;44.046;23.014;2023-05-08T11:01:46;101252.22;;;26.27;42.83
42725;BME280;28369;44.046;23.014;2023-05-08T11:04:19;101416.59;;;27.48;42.90
42725;BME280;28369;44.046;23.014;2023-05-08T11:06:46;101472.13;;;27.81;43.03
42725;BME280;28369;44.046;23.014;2023-05-08T11:09:20;101400.81;;;27.70;42.56
42725;BME280;28369;44.046;23.014;2023-05-08T11:11:55;101427.28;;;27.80;42.76
42725;BME280;28369;44.046;23.014;2023-05-08T11:14:24;101467.44;;;27.94;42.34
42725;BME280;28369;44.046;23.014;2023-05-08T11:19:20;101414.78;;;27.41;42.53
42725;BME280;28369;44.046;23.014;2023-05-08T11:22:15;101479.88;;;28.02;42.94
42725;BME280;28369;44.046;23.014;2023-05-08T11:27:37;101429.66;;;27.51;43.64
42725;BME280;28369;44.046;23.014;2023-05-08T11:30:24;101347.75;;;27.13;44.69
42725;BME280;28369;44.046;23.014;2023-05-08T11:35:54;101463.34;;;27.48;44.56
42725;BME280;28369;44.046;23.014;2023-05-08T11:46:12;101472.25;;;27.49;44.70
42725;BME280;28369;44.046;23.014;2023-05-08T11:48:38;101473.41;;;27.59;44.93
42725;BME280;28369;44.046;23.014;2023-05-08T11:51:04;101475.63;;;27.44;45.29
42725;BME280;28369;44.046;23.014;2023-05-08T11:53:30;101471.34;;;27.55;44.93
42725;BME280;28369;44.046;23.014;2023-05-08T11:55:57;101177.00;;;25.93;44.75
42725;BME280;28369;44.046;23.014;2023-05-08T11:58:23;101439.25;;;27.47;44.35
42725;BME280;28369;44.046;23.014;2023-05-08T12:00:49;101473.28;;;27.48;44.00
42725;BME280;28369;44.046;23.014;2023-05-08T12:03:16;101202.44;;;25.97;43.29
42725;BME280;28369;44.046;23.014;2023-05-08T12:05:42;101455.47;;;27.47;42.91
42725;BME280;28369;44.046;23.014;2023-05-08T12:08:09;101470.31;;;27.56;43.51
42725;BME280;28369;44.046;23.014;2023-05-08T12:10:39;101411.59;;;27.26;43.87
42725;BME280;28369;44.046;23.014;2023-05-08T12:13:15;101449.47;;;27.63;42.85
42725;BME280;28369;44.046;23.014;2023-05-08T12:15:41;101488.81;;;27.77;42.76
42725;BME280;28369;44.046;23.014;2023-05-08T12:18:07;101484.25;;;27.78;43.06
42725;BME280;28369;44.046;23.014;2023-05-08T12:20:32;101486.47;;;27.63;43.17
42725;BME280;28369;44.046;23.014;2023-05-08T12:23:01;101486.94;;;27.78;43.52
42725;BME280;28369;44.046;23.014;2023-05-08T12:25:27;101420.66;;;27.38;43.49
42725;BME280;28369;44.046;23.014;2023-05-08T12:27:52;101278.91;;;26.60;43.71
42725;BME280;28369;44.046;23.014;2023-05-08T12:30:18;101480.34;;;27.92;43.98
42725;BME280;28369;44.046;23.014;2023-05-08T12:32:45;101131.09;;;25.81;43.58
42725;BME280;28369;44.046;23.014;2023-05-08T12:35:11;101449.94;;;27.97;43.47
42725;BME280;28369;44.046;23.014;2023-05-08T12:37:37;101440.41;;;27.94;43.01
42725;BME280;28369;44.046;23.014;2023-05-08T12:40:04;101466.97;;;27.98;44.37
42725;BME280;28369;44.046;23.014;2023-05-08T12:42:48;101493.34;;;27.84;44.62
42725;BME280;28369;44.046;23.014;2023-05-08T12:45:26;101354.53;;;27.22;44.07
42725;BME280;28369;44.046;23.014;2023-05-08T12:47:53;101484.72;;;28.12;44.04
42725;BME280;28369;44.046;23.014;2023-05-08T12:50:22;101427.66;;;27.83;43.70
42725;BME280;28369;44.046;23.014;2023-05-08T12:52:51;101467.50;;;28.25;43.79
42725;BME280;28369;44.046;23.014;2023-05-08T12:55:26;101450.47;;;27.87;44.00
42725;BME280;28369;44.046;23.014;2023-05-08T12:58:00;101400.19;;;27.86;44.04
42725;BME280;28369;44.046;23.014;2023-05-08T13:00:47;101477.72;;;28.41;44.23
42725;BME280;28369;44.046;23.014;2023-05-08T13:05:46;101470.56;;;28.47;43.49
42725;BME280;28369;44.046;23.014;2023-05-08T13:08:11;101353.63;;;27.72;43.56
42725;BME280;28369;44.046;23.014;2023-05-08T13:10:50;101475.97;;;28.66;43.84
42725;BME280;28369;44.046;23.014;2023-05-08T13:13:23;101422.63;;;28.54;43.19
42725;BME280;28369;44.046;23.014;2023-05-08T13:15:53;101224.56;;;27.44;42.41
42725;BME280;28369;44.046;23.014;2023-05-08T13:18:22;101410.47;;;28.15;43.66
42725;BME280;28369;44.046;23.014;2023-05-08T13:20:48;101469.28;;;28.68;42.86
42725;BME280;28369;44.046;23.014;2023-05-08T13:23:13;101404.06;;;28.27;43.66
42725;BME280;28369;44.046;23.014;2023-05-08T13:25:40;101420.25;;;28.16;44.09